Time;durP1;ratioP1;P1;durP2;ratioP2;P2;SDS_P1;SDS_P2;PMS_P1;PMS_P2;Temp;Humidity;BMP_temperature;BMP_pressure;BME280_temperature;BME280_humidity;BME280_pressure;Samples;Min_cycle;Max_cycle;Signal;HPM_P1;HPM_P2
2022/11/04 00:08:24;;;;;;;1999.90;999.90;;;10.50;99.90;;;;;;6752348;88;20210;-77
2022/11/04 00:18:24;;;;;;;1999.90;999.90;;;10.60;99.90;;;;;;6741197;88;20643;-77
2022/11/04 00:28:43;;;;;;;1999.90;999.90;;;10.70;99.90;;;;;;6747962;88;20192;-78
2022/11/04 00:38:44;;;;;;;1999.90;999.90;;;10.60;99.90;;;;;;6752257;88;20187;-77
2022/11/04 00:48:44;;;;;;;1999.90;999.90;;;10.40;99.90;;;;;;6753673;88;20199;-78
2022/11/04 00:58:45;;;;;;;1999.90;999.90;;;10.40;99.90;;;;;;6744233;88;20184;-78
2022/11/04 01:08:46;;;;;;;1999.90;999.90;;;10.20;99.90;;;;;;6753142;88;20322;-78
2022/11/04 01:18:47;;;;;;;1999.90;999.90;;;10.20;99.90;;;;;;6744715;88;20733;-78
2022/11/04 01:28:49;;;;;;;1999.90;999.90;;;10.20;99.90;;;;;;6740710;88;20573;-78
2022/11/04 01:38:50;;;;;;;1999.90;999.90;;;10.10;99.90;;;;;;6753921;88;20237;-78
2022/11/04 01:48:52;;;;;;;1999.90;999.90;;;10.00;99.90;;;;;;6748596;88;20191;-78
2022/11/04 01:59:01;;;;;;;1999.90;999.90;;;9.90;99.90;;;;;;6746809;88;20214;-78
2022/11/04 02:09:01;;;;;;;1999.90;999.90;;;9.90;99.90;;;;;;6749733;88;20212;-78
2022/11/04 02:19:29;;;;;;;1999.90;999.90;;;9.80;99.90;;;;;;6756100;88;20195;-78
2022/11/04 02:30:03;;;;;;;1999.90;999.90;;;9.70;99.90;;;;;;6745442;88;20188;-78
2022/11/04 02:40:17;;;;;;;1999.90;999.90;;;9.60;99.90;;;;;;6754385;88;20216;-78
2022/11/04 02:50:58;;;;;;;1999.90;999.90;;;9.60;99.90;;;;;;6749617;88;20254;-78
2022/11/04 03:01:01;;;;;;;1999.90;999.90;;;9.70;99.90;;;;;;6728969;88;20287;-78
2022/11/04 03:11:10;;;;;;;1999.90;999.90;;;9.70;99.90;;;;;;6757946;88;20176;-78
2022/11/04 03:21:12;;;;;;;1999.90;999.90;;;9.60;99.90;;;;;;6756269;88;20802;-78
2022/11/04 03:31:24;;;;;;;1999.90;999.90;;;9.40;99.90;;;;;;6763312;88;20201;-77
2022/11/04 03:41:33;;;;;;;1999.90;999.90;;;9.30;99.90;;;;;;6761295;88;20176;-77
2022/11/04 03:51:34;;;;;;;1999.90;999.90;;;8.70;99.90;;;;;;6750401;88;20287;-77
2022/11/04 04:02:04;;;;;;;1999.90;999.90;;;8.60;99.90;;;;;;6750121;88;20244;-77
2022/11/04 04:12:08;;;;;;;1999.90;999.90;;;8.90;99.90;;;;;;6755630;88;20184;-77
2022/11/04 04:22:15;;;;;;;1999.90;999.90;;;9.10;99.90;;;;;;6752045;87;20215;-77
2022/11/04 04:32:18;;;;;;;1999.90;999.90;;;9.30;99.90;;;;;;6753448;88;20240;-78
2022/11/04 04:52:43;;;;;;;1999.90;999.90;;;9.10;99.90;;;;;;6753997;88;20166;-77
2022/11/04 05:02:43;;;;;;;1999.90;999.90;;;8.60;99.90;;;;;;6753710;88;20240;-78
2022/11/04 05:23:03;;;;;;;1999.90;999.90;;;8.20;99.90;;;;;;6750546;87;20536;-77
2022/11/04 05:33:04;;;;;;;1999.90;999.90;;;8.20;99.90;;;;;;6752869;88;20276;-78
2022/11/04 05:43:04;;;;;;;1999.90;999.90;;;8.20;99.90;;;;;;6759640;88;20321;-78
2022/11/04 05:53:05;;;;;;;1999.90;999.90;;;8.20;99.90;;;;;;6750717;88;20644;-78
2022/11/04 06:03:05;;;;;;;1999.90;999.90;;;8.20;99.90;;;;;;6756270;88;20188;-77
2022/11/04 06:13:06;;;;;;;1999.90;999.90;;;8.20;99.90;;;;;;6759620;88;20201;-78
2022/11/04 06:23:07;;;;;;;1999.90;999.90;;;8.10;99.90;;;;;;6754820;87;20369;-77
2022/11/04 06:33:07;;;;;;;1999.90;999.90;;;8.00;99.90;;;;;;6746389;88;20177;-78
2022/11/04 06:43:08;;;;;;;1999.90;999.90;;;7.90;99.90;;;;;;6757641;88;20205;-77
2022/11/04 06:53:08;;;;;;;1999.90;999.90;;;8.00;99.90;;;;;;6752230;88;20236;-76
2022/11/04 07:03:09;;;;;;;1999.90;999.90;;;8.20;99.90;;;;;;6749218;88;20229;-79
2022/11/04 07:13:09;;;;;;;1999.90;999.90;;;8.40;99.90;;;;;;6751663;88;20189;-76
2022/11/04 07:23:10;;;;;;;1999.90;999.90;;;8.40;99.90;;;;;;6745944;88;20526;-76
2022/11/04 07:33:10;;;;;;;1999.90;999.90;;;8.60;99.90;;;;;;6749862;88;20715;-77
2022/11/04 07:43:11;;;;;;;1999.90;999.90;;;8.80;99.90;;;;;;6749513;88;20189;-77
2022/11/04 07:53:11;;;;;;;1999.90;999.90;;;9.10;99.90;;;;;;6749170;88;20320;-77
2022/11/04 08:03:12;;;;;;;1999.90;999.90;;;9.30;99.90;;;;;;6745338;88;20219;-77
2022/11/04 08:24:15;;;;;;;1999.90;999.90;;;9.70;99.90;;;;;;6667922;88;20931;-77
2022/11/04 08:34:17;;;;;;;1999.90;999.90;;;10.00;99.90;;;;;;6662194;88;20619;-78
2022/11/04 08:44:19;;;;;;;1999.90;999.90;;;10.20;99.90;;;;;;6661770;89;20237;-77
2022/11/04 08:54:20;;;;;;;1999.90;999.90;;;10.30;99.90;;;;;;6736468;88;20214;-77
2022/11/04 09:04:20;;;;;;;1999.90;999.90;;;10.40;99.90;;;;;;6698344;88;20193;-77
2022/11/04 09:14:22;;;;;;;1999.90;999.90;;;10.90;99.90;;;;;;6698978;88;20337;-77
2022/11/04 09:24:23;;;;;;;1999.90;999.90;;;11.10;99.90;;;;;;6678280;88;20352;-77
2022/11/04 09:34:23;;;;;;;1999.90;999.90;;;11.50;99.90;;;;;;6684537;88;20667;-78
2022/11/04 09:44:26;;;;;;;1999.90;999.90;;;11.80;99.90;;;;;;6678609;88;20608;-77
2022/11/04 09:54:36;;;;;;;1999.90;999.90;;;11.80;99.90;;;;;;6675057;88;20212;-77
2022/11/04 10:04:40;;;;;;;1999.90;999.90;;;11.90;99.90;;;;;;6684080;88;20222;-78
2022/11/04 10:15:18;;;;;;;1999.90;999.90;;;11.90;99.90;;;;;;6680202;88;20204;-77
2022/11/04 10:25:29;;;;;;;1999.90;999.90;;;12.20;99.90;;;;;;6665227;88;20219;-77
2022/11/04 10:35:50;;;;;;;1999.90;999.90;;;12.60;99.90;;;;;;6664857;88;20709;-77
2022/11/04 10:46:25;;;;;;;1999.90;999.90;;;12.70;99.90;;;;;;6681163;88;20188;-78
2022/11/04 10:56:42;;;;;;;1999.90;999.90;;;13.20;99.90;;;;;;6689896;88;20194;-77
2022/11/04 11:06:49;;;;;;;1999.90;999.90;;;13.30;99.90;;;;;;6728668;88;20659;-77
2022/11/04 11:16:49;;;;;;;1999.90;999.90;;;13.50;99.90;;;;;;6663045;88;20212;-77
2022/11/04 11:26:56;;;;;;;1999.90;999.90;;;13.70;99.90;;;;;;6661175;89;20185;-78
2022/11/04 11:36:57;;;;;;;1999.90;999.90;;;14.70;99.90;;;;;;6680698;88;20212;-77
2022/11/04 11:47:15;;;;;;;1999.90;999.90;;;14.60;99.90;;;;;;6677290;89;20206;-77
2022/11/04 11:57:35;;;;;;;1999.90;999.90;;;14.40;99.90;;;;;;6686022;88;20185;-78
2022/11/04 12:07:46;;;;;;;1999.90;999.90;;;14.60;99.90;;;;;;6706455;88;20638;-77
2022/11/04 12:18:17;;;;;;;1999.90;999.90;;;14.10;99.90;;;;;;6665632;88;20335;-77
2022/11/04 12:28:42;;;;;;;1999.90;999.90;;;13.60;99.90;;;;;;6676377;88;20681;-77
2022/11/04 12:39:07;;;;;;;1999.90;999.90;;;13.60;99.90;;;;;;6681756;88;20189;-77
2022/11/04 12:49:22;;;;;;;1999.90;999.90;;;13.30;99.90;;;;;;6676109;88;20210;-77
2022/11/04 12:59:49;;;;;;;1999.90;999.90;;;13.10;99.90;;;;;;6655413;89;20247;-79
2022/11/04 13:09:57;;;;;;;1999.90;999.90;;;12.90;99.90;;;;;;6662366;89;20218;-79
2022/11/04 13:20:04;;;;;;;1999.90;999.90;;;12.60;99.90;;;;;;6686086;88;20223;-78
2022/11/04 13:30:24;;;;;;;1999.90;999.90;;;12.70;99.90;;;;;;6683663;88;20637;-79
2022/11/04 13:41:02;;;;;;;1999.90;999.90;;;12.50;99.90;;;;;;6641021;89;20256;-77
2022/11/04 13:51:10;;;;;;;1999.90;999.90;;;12.50;99.90;;;;;;6695537;88;20212;-77
2022/11/04 14:01:26;;;;;;;1999.90;999.90;;;12.70;99.90;;;;;;6682584;88;20204;-77
2022/11/04 14:11:27;;;;;;;1999.90;999.90;;;13.80;99.90;;;;;;6718698;77;20722;-76
2022/11/04 14:21:28;;;;;;;1999.90;999.90;;;14.50;99.90;;;;;;6682674;88;20222;-76
2022/11/04 14:31:38;;;;;;;1999.90;999.90;;;13.70;99.90;;;;;;6677275;88;20256;-75
2022/11/04 14:41:38;;;;;;;1999.90;999.90;;;12.80;99.90;;;;;;6686227;88;20190;-76
2022/11/04 14:51:39;;;;;;;1999.90;999.90;;;11.90;99.90;;;;;;6671936;88;20329;-75
2022/11/04 15:01:41;;;;;;;1999.90;999.90;;;11.60;99.90;;;;;;6684291;88;20239;-75
2022/11/04 15:22:05;;;;;;;1999.90;999.90;;;11.10;99.90;;;;;;6675337;88;20689;-75
2022/11/04 15:32:05;;;;;;;1999.90;999.90;;;11.00;99.90;;;;;;6682305;88;20215;-76
2022/11/04 15:52:32;;;;;;;1999.90;999.90;;;11.00;99.90;;;;;;6680712;88;20755;-75
2022/11/04 16:02:37;;;;;;;1999.90;999.90;;;11.30;99.90;;;;;;6681529;88;20206;-74
2022/11/04 16:12:43;;;;;;;1999.90;999.90;;;11.10;99.90;;;;;;6685577;88;20177;-74
2022/11/04 16:22:44;;;;;;;1999.90;999.90;;;10.90;99.90;;;;;;6685702;88;20174;-74
2022/11/04 16:32:50;;;;;;;1999.90;999.90;;;10.90;99.90;;;;;;6685164;88;20320;-74
2022/11/04 16:42:51;;;;;;;;;;;10.80;99.90;;;;;;6685525;88;20212;-74
2022/11/04 16:52:52;;;;;;;1999.90;999.90;;;10.50;99.90;;;;;;6684817;88;20054;-76
2022/11/04 17:02:53;;;;;;;1999.90;999.90;;;10.30;99.90;;;;;;6678172;88;20198;-76
2022/11/04 17:12:54;;;;;;;1999.90;999.90;;;10.30;99.90;;;;;;6677742;88;20193;-75
2022/11/04 17:22:55;;;;;;;1999.90;999.90;;;10.30;99.90;;;;;;6680606;88;20192;-76
2022/11/04 17:32:55;;;;;;;1999.90;999.90;;;10.20;99.90;;;;;;6688862;88;20199;-76
2022/11/04 17:53:15;;;;;;;1999.90;999.90;;;10.30;99.90;;;;;;6678806;88;20211;-76
2022/11/04 18:03:16;;;;;;;1999.90;999.90;;;10.20;99.90;;;;;;6690453;88;20264;-76
2022/11/04 18:13:17;;;;;;;1999.90;999.90;;;10.20;99.90;;;;;;6684592;88;20302;-76
2022/11/04 18:23:17;;;;;;;1999.90;999.90;;;10.30;99.90;;;;;;6699235;88;20193;-76
2022/11/04 18:33:18;;;;;;;1999.90;999.90;;;10.20;99.90;;;;;;6695630;88;20224;-77
2022/11/04 18:43:18;;;;;;;1999.90;999.90;;;10.20;99.90;;;;;;6696792;88;20653;-78
2022/11/04 18:53:19;;;;;;;1999.90;999.90;;;10.20;99.90;;;;;;6703294;88;20185;-77
2022/11/04 19:03:20;;;;;;;1999.90;999.90;;;10.10;99.90;;;;;;6698055;88;20205;-76
2022/11/04 19:13:20;;;;;;;1999.90;999.90;;;10.10;99.90;;;;;;6697210;88;20603;-76
2022/11/04 19:23:21;;;;;;;1999.90;999.90;;;10.10;99.90;;;;;;6705729;88;20589;-78
2022/11/04 19:33:21;;;;;;;1999.90;999.90;;;10.20;99.90;;;;;;6681592;88;20182;-77
2022/11/04 19:43:22;;;;;;;1999.90;999.90;;;10.10;99.90;;;;;;6690309;88;20174;-77
2022/11/04 19:53:23;;;;;;;1999.90;999.90;;;10.10;99.90;;;;;;6698647;88;20211;-76
2022/11/04 20:03:23;;;;;;;1999.90;999.90;;;10.30;99.90;;;;;;6690216;88;20204;-76
2022/11/04 20:13:48;;;;;;;1999.90;999.90;;;10.30;99.90;;;;;;6727551;76;20188;-80
2022/11/04 20:23:48;;;;;;;1999.90;999.90;;;10.40;99.90;;;;;;6673255;89;20258;-80
2022/11/04 20:33:51;;;;;;;1999.90;999.90;;;10.20;99.90;;;;;;6654123;89;20370;-80
2022/11/04 20:43:53;;;;;;;1999.90;999.90;;;10.10;99.90;;;;;;6655025;89;20277;-79
2022/11/04 20:53:59;;;;;;;1999.90;999.90;;;10.20;99.90;;;;;;6659762;88;20317;-79
2022/11/04 21:04:05;;;;;;;1999.90;999.90;;;10.20;99.90;;;;;;6672037;89;20304;-78
2022/11/04 21:14:07;;;;;;;1999.90;999.90;;;10.20;99.90;;;;;;6656281;89;20180;-81
2022/11/04 21:24:11;;;;;;;1999.90;999.90;;;10.30;99.90;;;;;;6631983;89;20703;-79
2022/11/04 21:34:12;;;;;;;1999.90;999.90;;;10.30;99.90;;;;;;6649972;89;20303;-79
2022/11/04 21:44:13;;;;;;;1999.90;999.90;;;10.20;99.90;;;;;;6654614;89;20196;-79
2022/11/04 21:54:13;;;;;;;1999.90;999.90;;;10.10;99.90;;;;;;6655499;89;20216;-79
2022/11/04 22:04:14;;;;;;;1999.90;999.90;;;10.10;99.90;;;;;;6655196;89;20232;-80
2022/11/04 22:14:14;;;;;;;1999.90;999.90;;;10.00;99.90;;;;;;6654600;88;20524;-80
2022/11/04 22:24:16;;;;;;;1999.90;999.90;;;10.00;99.90;;;;;;6656721;89;20657;-80
2022/11/04 22:34:17;;;;;;;1999.90;999.90;;;10.00;99.90;;;;;;6659821;89;20188;-80
2022/11/04 22:44:17;;;;;;;1999.90;999.90;;;10.00;99.90;;;;;;6657641;89;20208;-79
2022/11/04 22:54:18;;;;;;;1999.90;999.90;;;9.90;99.90;;;;;;6657166;89;20217;-79
2022/11/04 23:04:19;;;;;;;1999.90;999.90;;;10.00;99.90;;;;;;6656527;88;20183;-79
